createdAt,value
2023-02-24T00:00:31.482Z,99574.31
2023-02-24T00:03:05.641Z,99572.13
2023-02-24T00:05:39.594Z,99565.21
2023-02-24T00:08:07.740Z,99558.80
2023-02-24T00:10:36.970Z,99557.80
2023-02-24T00:13:05.439Z,99554.96
2023-02-24T00:15:33.417Z,99551.75
2023-02-24T00:18:06.609Z,99549.06
2023-02-24T00:20:35.082Z,99543.65
2023-02-24T00:23:03.461Z,99541.13
2023-02-24T00:25:31.814Z,99536.57
2023-02-24T00:28:01.098Z,99532.02
2023-02-24T00:30:30.924Z,99522.72
2023-02-24T00:33:00.858Z,99521.55
2023-02-24T00:35:29.868Z,99519.69
2023-02-24T00:37:58.140Z,99516.33
2023-02-24T00:40:26.342Z,99505.52
2023-02-24T00:42:54.569Z,99502.30
2023-02-24T00:45:22.851Z,99495.38
2023-02-24T00:47:50.962Z,99494.69
2023-02-24T00:50:19.442Z,99490.12
2023-02-24T00:52:49.649Z,99492.34
2023-02-24T00:55:18.648Z,99485.39
2023-02-24T00:57:50.194Z,99483.20
2023-02-24T01:00:20.805Z,99480.84
2023-02-24T01:02:48.992Z,99476.10
2023-02-24T01:05:17.228Z,99471.69
2023-02-24T01:07:45.430Z,99465.09
2023-02-24T01:10:13.421Z,99463.73
2023-02-24T01:12:51.345Z,99466.27
2023-02-24T01:15:23.125Z,99460.69
2023-02-24T01:17:52.163Z,99458.14
2023-02-24T01:20:21.183Z,99454.94
2023-02-24T01:22:53.399Z,99454.27
2023-02-24T01:25:22.420Z,99453.08
2023-02-24T01:27:52.283Z,99444.61
2023-02-24T01:30:21.019Z,99437.50
2023-02-24T01:32:50.391Z,99435.98
2023-02-24T01:35:19.976Z,99432.76
2023-02-24T01:37:49.921Z,99427.35
2023-02-24T01:40:20.701Z,99420.91
2023-02-24T01:42:50.186Z,99416.17
2023-02-24T01:45:25.142Z,99414.46
2023-02-24T01:47:57.195Z,99409.21
2023-02-24T01:50:26.589Z,99409.38
2023-02-24T01:52:59.842Z,99408.38
2023-02-24T01:55:33.076Z,99401.92
2023-02-24T01:58:05.497Z,99398.70
2023-02-24T02:00:37.688Z,99393.79
2023-02-24T02:03:13.473Z,99392.79
2023-02-24T02:05:44.620Z,99391.23
2023-02-24T02:08:13.978Z,99386.65
2023-02-24T02:10:44.014Z,99386.16
2023-02-24T02:13:19.872Z,99381.75
2023-02-24T02:16:05.564Z,99379.21
2023-02-24T02:18:55.725Z,99377.52
2023-02-24T02:21:44.962Z,99371.59
2023-02-24T02:24:49.906Z,99365.50
2023-02-24T02:27:36.373Z,99360.92
2023-02-24T02:30:40.032Z,99359.06
2023-02-24T02:33:43.582Z,99359.58
2023-02-24T02:36:18.931Z,99357.88
2023-02-24T02:38:57.837Z,99357.54
2023-02-24T02:41:31.252Z,99358.38
2023-02-24T02:44:08.116Z,99357.04
2023-02-24T02:46:41.126Z,99357.19
2023-02-24T02:49:18.949Z,99351.44
2023-02-24T02:51:53.218Z,99349.39
2023-02-24T02:54:28.499Z,99350.07
2023-02-24T02:57:04.641Z,99346.67
2023-02-24T02:59:37.492Z,99347.00
2023-02-24T03:02:14.315Z,99340.23
2023-02-24T03:04:47.958Z,99340.57
2023-02-24T03:07:19.166Z,99342.42
2023-02-24T03:09:55.828Z,99336.83
2023-02-24T03:12:26.407Z,99333.95
2023-02-24T03:14:59.401Z,99318.17
2023-02-24T03:17:30.526Z,99310.89
2023-02-24T03:20:14.422Z,99311.57
2023-02-24T03:22:51.402Z,99319.38
2023-02-24T03:25:29.361Z,99316.65
2023-02-24T03:28:05.388Z,99318.33
2023-02-24T03:30:40.531Z,99313.39
2023-02-24T03:33:16.845Z,99309.98
2023-02-24T03:35:45.718Z,99309.97
2023-02-24T03:38:14.615Z,99303.35
2023-02-24T03:40:43.020Z,99304.02
2023-02-24T03:43:19.094Z,99299.26
2023-02-24T03:45:46.603Z,99297.70
2023-02-24T03:48:15.538Z,99297.70
2023-02-24T03:50:44.927Z,99297.51
2023-02-24T03:53:33.158Z,99294.42
2023-02-24T03:56:22.166Z,99290.50
2023-02-24T03:59:04.211Z,99283.70
2023-02-24T04:01:41.823Z,99280.78
2023-02-24T04:04:19.665Z,99277.02
2023-02-24T04:06:59.546Z,99275.48
2023-02-24T04:09:38.904Z,99271.73
2023-02-24T04:12:18.160Z,99264.40
2023-02-24T04:14:51.374Z,99256.77
2023-02-24T04:17:22.326Z,99251.99
2023-02-24T04:19:55.190Z,99245.54
2023-02-24T04:22:26.642Z,99241.77
2023-02-24T04:24:59.871Z,99235.85
2023-02-24T04:27:28.940Z,99227.88
2023-02-24T04:30:04.253Z,99230.57
2023-02-24T04:32:33.384Z,99231.23
2023-02-24T04:35:09.385Z,99227.14
2023-02-24T04:37:39.818Z,99223.73
2023-02-24T04:40:11.262Z,99223.05
2023-02-24T04:42:45.795Z,99219.63
2023-02-24T04:45:16.304Z,99218.94
2023-02-24T04:47:48.803Z,99214.33
2023-02-24T04:50:22.509Z,99213.79
2023-02-24T04:52:52.687Z,99210.04
2023-02-24T04:55:22.107Z,99212.03
2023-02-24T04:57:52.115Z,99207.96
2023-02-24T05:00:22.303Z,99208.64
2023-02-24T05:02:55.959Z,99205.40
2023-02-24T05:05:25.481Z,99204.05
2023-02-24T05:07:55.389Z,99197.25
2023-02-24T05:10:27.502Z,99193.52
2023-02-24T05:12:57.897Z,99192.48
2023-02-24T05:15:30.754Z,99195.01
2023-02-24T05:18:00.254Z,99194.32
2023-02-24T05:20:46.918Z,99193.63
2023-02-24T05:23:16.594Z,99189.88
2023-02-24T05:25:45.161Z,99189.02
2023-02-24T05:28:13.344Z,99187.30
2023-02-24T05:30:41.461Z,99182.52
2023-02-24T05:33:10.944Z,99180.66
2023-02-24T05:35:42.743Z,99179.30
2023-02-24T05:38:11.040Z,99180.81
2023-02-24T05:40:45.868Z,99177.07
2023-02-24T05:43:17.629Z,99178.23
2023-02-24T05:45:46.152Z,99180.77
2023-02-24T05:48:14.845Z,99181.94
2023-02-24T05:50:51.669Z,99179.55
2023-02-24T05:53:20.400Z,99182.92
2023-02-24T05:55:48.735Z,99181.88
2023-02-24T05:58:17.193Z,99180.84
2023-02-24T06:00:46.212Z,99182.17
2023-02-24T06:03:17.000Z,99181.13
2023-02-24T06:05:55.036Z,99178.73
2023-02-24T06:08:24.225Z,99177.35
2023-02-24T06:10:53.189Z,99173.27
2023-02-24T06:13:21.306Z,99171.39
2023-02-24T06:15:54.483Z,99169.02
2023-02-24T06:18:22.508Z,99169.70
2023-02-24T06:20:50.583Z,99169.16
2023-02-24T06:23:18.873Z,99168.98
2023-02-24T06:25:46.802Z,99167.11
2023-02-24T06:28:19.576Z,99168.26
2023-02-24T06:30:47.760Z,99166.54
2023-02-24T06:33:16.325Z,99164.15
2023-02-24T06:35:44.404Z,99158.02
2023-02-24T06:38:14.191Z,99156.63
2023-02-24T06:40:47.027Z,99153.55
2023-02-24T06:43:15.096Z,99148.27
2023-02-24T06:45:44.803Z,99147.58
2023-02-24T06:48:13.291Z,99152.30
2023-02-24T06:50:42.967Z,99147.05
2023-02-24T06:53:16.862Z,99146.31
2023-02-24T06:55:48.225Z,99143.77
2023-02-24T06:58:19.562Z,99145.44
2023-02-24T07:00:56.245Z,99144.76
2023-02-24T07:03:38.646Z,99145.76
2023-02-24T07:06:19.762Z,99143.02
2023-02-24T07:08:48.360Z,99142.63
2023-02-24T07:11:18.435Z,99138.69
2023-02-24T07:13:48.617Z,99135.42
2023-02-24T07:16:19.253Z,99133.55
2023-02-24T07:18:48.228Z,99132.17
2023-02-24T07:21:20.497Z,99132.27
2023-02-24T07:23:49.662Z,99126.80
2023-02-24T07:26:22.601Z,99127.09
2023-02-24T07:28:54.405Z,99124.01
2023-02-24T07:31:25.318Z,99123.66
2023-02-24T07:33:56.506Z,99122.62
2023-02-24T07:36:29.336Z,99124.43
2023-02-24T07:38:58.805Z,99120.66
2023-02-24T07:41:28.455Z,99121.98
2023-02-24T07:44:00.135Z,99118.91
2023-02-24T07:46:31.745Z,99117.67
2023-02-24T07:49:00.907Z,99112.01
2023-02-24T07:51:30.313Z,99115.33
2023-02-24T07:54:00.833Z,99108.67
2023-02-24T07:56:30.573Z,99109.00
2023-02-24T07:59:01.528Z,99104.55
2023-02-24T08:01:38.217Z,99104.67
2023-02-24T08:04:08.449Z,99103.10
2023-02-24T08:06:39.022Z,99099.18
2023-02-24T08:09:16.197Z,99096.91
2023-02-24T08:11:46.894Z,99096.02
2023-02-24T08:14:15.606Z,99093.59
2023-02-24T08:16:45.735Z,99089.30
2023-02-24T08:19:20.387Z,99088.08
2023-02-24T08:21:50.195Z,99089.73
2023-02-24T08:24:25.359Z,99083.91
2023-02-24T08:27:04.647Z,99081.51
2023-02-24T08:29:39.572Z,99078.94
2023-02-24T08:32:09.030Z,99079.73
2023-02-24T08:34:37.765Z,99074.42
2023-02-24T08:37:06.286Z,99071.31
2023-02-24T08:39:35.882Z,99073.16
2023-02-24T08:42:04.235Z,99068.72
2023-02-24T08:44:34.523Z,99066.98
2023-02-24T08:47:04.624Z,99067.46
2023-02-24T08:49:33.228Z,99063.53
2023-02-24T08:52:02.012Z,99059.93
2023-02-24T08:54:31.478Z,99055.80
2023-02-24T08:57:07.756Z,99056.81
2023-02-24T08:59:37.865Z,99053.55
2023-02-24T09:02:18.049Z,99049.48
2023-02-24T09:04:48.145Z,99042.47
2023-02-24T09:07:18.347Z,99042.64
2023-02-24T09:09:46.620Z,99038.20
2023-02-24T09:12:21.451Z,99034.42
2023-02-24T09:14:54.817Z,99034.09
2023-02-24T09:17:40.530Z,99030.88
2023-02-24T09:20:43.024Z,99027.51
2023-02-24T09:23:19.440Z,99023.23
2023-02-24T09:25:49.197Z,99023.71
2023-02-24T09:28:19.837Z,99021.09
2023-02-24T09:31:07.438Z,99020.30
2023-02-24T09:33:38.478Z,99021.04
2023-02-24T09:36:12.471Z,99017.86
2023-02-24T09:39:00.539Z,99012.13
2023-02-24T09:41:52.711Z,99012.19
2023-02-24T09:44:32.764Z,99002.90
2023-02-24T09:47:09.462Z,99004.79
2023-02-24T09:49:47.824Z,99003.31
2023-02-24T09:52:18.605Z,99003.39
2023-02-24T09:55:14.293Z,98999.58
2023-02-24T09:58:25.012Z,98999.69
2023-02-24T10:01:20.293Z,98992.45
2023-02-24T10:04:08.779Z,98997.00
2023-02-24T10:06:48.703Z,98991.46
2023-02-24T10:09:23.982Z,98990.02
2023-02-24T10:11:55.028Z,98984.16
2023-02-24T10:14:37.962Z,98986.31
2023-02-24T10:17:30.023Z,98986.73
2023-02-24T10:20:13.225Z,98983.41
2023-02-24T10:22:50.042Z,98980.11
2023-02-24T10:25:35.491Z,98977.16
2023-02-24T10:28:15.660Z,98977.80
2023-02-24T10:31:03.327Z,98973.48
2023-02-24T10:33:38.306Z,98970.60
2023-02-24T10:36:10.148Z,98964.96
2023-02-24T10:38:44.905Z,98960.30
2023-02-24T10:41:14.359Z,98959.02
2023-02-24T10:43:55.429Z,98951.10
2023-02-24T10:46:41.133Z,98948.48
2023-02-24T10:49:15.650Z,98943.84
2023-02-24T10:51:47.767Z,98944.17
2023-02-24T10:54:54.324Z,98939.93
2023-02-24T10:57:36.117Z,98936.99
2023-02-24T11:00:50.883Z,98941.58
2023-02-24T11:03:35.414Z,98931.34
2023-02-24T11:06:19.570Z,98923.14
2023-02-24T11:09:18.477Z,98920.49
2023-02-24T11:12:05.953Z,98919.23
2023-02-24T11:15:04.241Z,98914.92
2023-02-24T11:17:32.812Z,98905.45
2023-02-24T11:20:10.176Z,98897.09
2023-02-24T11:22:41.604Z,98897.11
2023-02-24T11:25:19.350Z,98895.45
2023-02-24T11:27:48.206Z,98892.26
2023-02-24T11:30:24.616Z,98886.88
2023-02-24T11:33:16.710Z,98883.55
2023-02-24T11:35:56.007Z,98880.35
2023-02-24T11:38:36.408Z,98878.70
2023-02-24T11:41:15.322Z,98868.86
2023-02-24T11:43:55.809Z,98870.24
2023-02-24T11:46:33.682Z,98861.45
2023-02-24T11:49:06.545Z,98853.58
2023-02-24T11:51:37.357Z,98847.54
2023-02-24T11:54:10.551Z,98849.09
2023-02-24T11:56:43.332Z,98847.98
2023-02-24T11:59:17.094Z,98848.94
2023-02-24T12:01:52.087Z,98847.74
2023-02-24T12:04:24.516Z,98846.27
2023-02-24T12:06:59.087Z,98840.55
2023-02-24T12:09:33.483Z,98838.03
2023-02-24T12:12:07.359Z,98836.59
2023-02-24T12:14:40.704Z,98832.30
2023-02-24T12:17:21.299Z,98833.84
2023-02-24T12:20:05.322Z,98834.50
2023-02-24T12:22:45.451Z,98830.34
2023-02-24T12:25:16.584Z,98823.90
2023-02-24T12:27:59.436Z,98822.46
2023-02-24T12:30:48.085Z,98818.20
2023-02-24T12:33:31.385Z,98814.83
2023-02-24T12:36:12.178Z,98810.19
2023-02-24T12:38:52.904Z,98807.75
2023-02-24T12:41:39.375Z,98805.33
2023-02-24T12:44:22.635Z,98798.72
2023-02-24T12:47:03.280Z,98788.20
2023-02-24T12:49:47.053Z,98788.39
2023-02-24T12:52:20.149Z,98784.50
2023-02-24T12:54:58.832Z,98784.92
2023-02-24T12:57:33.247Z,98776.35
2023-02-24T13:00:07.940Z,98777.56
2023-02-24T13:02:48.746Z,98773.36
2023-02-24T13:05:23.174Z,98770.20
2023-02-24T13:08:09.159Z,98765.30
2023-02-24T13:10:45.396Z,98759.95
2023-02-24T13:13:21.952Z,98755.73
2023-02-24T13:15:52.594Z,98755.51
2023-02-24T13:18:29.658Z,98751.41
2023-02-24T13:21:06.370Z,98744.38
2023-02-24T13:23:36.569Z,98747.88
2023-02-24T13:26:04.801Z,98739.74
2023-02-24T13:28:35.588Z,98739.63
2023-02-24T13:31:06.040Z,98735.79
2023-02-24T13:33:38.855Z,98733.86
2023-02-24T13:36:21.065Z,98730.21
2023-02-24T13:38:50.912Z,98722.80
2023-02-24T13:41:35.778Z,98725.88
2023-02-24T13:44:22.330Z,98723.84
2023-02-24T13:47:06.176Z,98719.44
2023-02-24T13:49:42.563Z,98713.33
2023-02-24T13:52:20.237Z,98713.48
2023-02-24T13:55:03.268Z,98709.50
2023-02-24T13:57:47.652Z,98704.05
2023-02-24T14:00:26.464Z,98701.97
2023-02-24T14:02:55.453Z,98700.09
2023-02-24T14:05:27.899Z,98698.27
2023-02-24T14:07:56.473Z,98696.91
2023-02-24T14:10:26.262Z,98703.84
2023-02-24T14:13:04.552Z,98707.83
2023-02-24T14:15:34.432Z,98703.74
2023-02-24T14:18:05.596Z,98702.58
2023-02-24T14:20:36.869Z,98699.80
2023-02-24T14:23:22.025Z,98690.93
2023-02-24T14:25:54.609Z,98685.58
2023-02-24T14:28:25.293Z,98675.79
2023-02-24T14:30:58.743Z,98671.14
2023-02-24T14:33:32.426Z,98667.13
2023-02-24T14:36:01.583Z,98671.67
2023-02-24T14:38:35.129Z,98671.67
2023-02-24T14:41:05.238Z,98664.89
2023-02-24T14:43:39.745Z,98663.27
2023-02-24T14:46:07.948Z,98664.04
2023-02-24T14:48:36.316Z,98660.93
2023-02-24T14:51:09.224Z,98662.06
2023-02-24T14:53:48.462Z,98649.80
2023-02-24T14:56:17.536Z,98642.91
2023-02-24T14:58:48.153Z,98641.15
2023-02-24T15:01:27.348Z,98652.29
2023-02-24T15:04:00.128Z,98647.27
2023-02-24T15:06:31.900Z,98649.71
2023-02-24T15:09:03.769Z,98648.25
2023-02-24T15:11:32.773Z,98644.27
2023-02-24T15:14:05.671Z,98640.80
2023-02-24T15:16:39.103Z,98636.66
2023-02-24T15:19:26.071Z,98630.82
2023-02-24T15:21:54.886Z,98629.92
2023-02-24T15:24:31.072Z,98622.54
2023-02-24T15:27:19.707Z,98624.99
2023-02-24T15:29:56.773Z,98622.52
2023-02-24T15:32:27.813Z,98615.32
2023-02-24T15:34:56.091Z,98614.74
2023-02-24T15:37:27.129Z,98616.38
2023-02-24T15:40:05.430Z,98613.41
2023-02-24T15:42:35.256Z,98614.90
2023-02-24T15:45:05.270Z,98612.10
2023-02-24T15:47:44.065Z,98616.29
2023-02-24T15:50:13.620Z,98610.23
2023-02-24T15:52:42.295Z,98616.30
2023-02-24T15:55:15.644Z,98614.47
2023-02-24T15:57:45.110Z,98621.11
2023-02-24T16:00:20.025Z,98618.41
2023-02-24T16:02:49.716Z,98619.89
2023-02-24T16:05:17.865Z,98617.05
2023-02-24T16:07:47.849Z,98621.70
2023-02-24T16:10:19.856Z,98616.66
2023-02-24T16:12:52.089Z,98627.96
2023-02-24T16:15:25.340Z,98626.37
2023-02-24T16:17:54.190Z,98624.84
2023-02-24T16:20:30.780Z,98627.88
2023-02-24T16:23:00.911Z,98637.88
2023-02-24T16:25:33.239Z,98637.66
2023-02-24T16:28:01.746Z,98642.14
2023-02-24T16:30:30.801Z,98640.23
2023-02-24T16:33:00.780Z,98638.46
2023-02-24T16:35:29.248Z,98635.66
2023-02-24T16:37:57.464Z,98633.70
2023-02-24T16:40:29.508Z,98634.13
2023-02-24T16:42:57.629Z,98634.22
2023-02-24T16:45:28.865Z,98632.08
2023-02-24T16:48:02.040Z,98628.95
2023-02-24T16:50:33.737Z,98632.08
2023-02-24T16:53:02.125Z,98629.10
2023-02-24T16:55:30.288Z,98628.00
2023-02-24T16:57:58.445Z,98624.34
2023-02-24T17:00:26.840Z,98621.58
2023-02-24T17:02:55.101Z,98624.53
2023-02-24T17:05:25.773Z,98625.45
2023-02-24T17:07:55.277Z,98620.13
2023-02-24T17:10:24.773Z,98624.96
2023-02-24T17:12:53.163Z,98628.27
2023-02-24T17:15:25.157Z,98624.14
2023-02-24T17:17:53.322Z,98625.05
2023-02-24T17:20:21.441Z,98631.06
2023-02-24T17:22:49.646Z,98622.48
2023-02-24T17:25:19.441Z,98621.48
2023-02-24T17:27:47.739Z,98612.72
2023-02-24T17:30:18.819Z,98607.84
2023-02-24T17:32:46.789Z,98614.67
2023-02-24T17:35:15.288Z,98617.98
2023-02-24T17:37:43.546Z,98608.37
2023-02-24T17:40:13.588Z,98612.50
2023-02-24T17:42:42.376Z,98613.90
2023-02-24T17:45:13.421Z,98607.13
2023-02-24T17:47:42.183Z,98606.13
2023-02-24T17:50:12.885Z,98595.28
2023-02-24T17:52:41.434Z,98590.89
2023-02-24T17:55:17.310Z,98590.19
2023-02-24T17:57:45.590Z,98585.63
2023-02-24T18:00:15.419Z,98578.86
2023-02-24T18:02:43.907Z,98576.65
2023-02-24T18:05:14.835Z,98575.32
2023-02-24T18:07:43.011Z,98576.38
2023-02-24T18:10:14.633Z,98570.95
2023-02-24T18:12:43.039Z,98566.93
2023-02-24T18:15:38.838Z,98564.28
2023-02-24T18:18:22.070Z,98567.52
2023-02-24T18:20:51.024Z,98565.01
2023-02-24T18:23:19.234Z,98564.18
2023-02-24T18:25:47.526Z,98559.81
2023-02-24T18:28:16.597Z,98562.55
2023-02-24T18:30:54.091Z,98560.26
2023-02-24T18:33:22.949Z,98561.79
2023-02-24T18:35:58.416Z,98556.74
2023-02-24T18:38:27.525Z,98548.79
2023-02-24T18:41:00.645Z,98545.59
2023-02-24T18:43:30.269Z,98534.96
2023-02-24T18:45:59.745Z,98524.48
2023-02-24T18:48:28.821Z,98521.60
2023-02-24T18:50:58.387Z,98525.55
2023-02-24T18:53:30.609Z,98526.81
2023-02-24T18:56:03.168Z,98527.09
2023-02-24T18:58:31.600Z,98521.95
2023-02-24T19:01:00.335Z,98518.91
2023-02-24T19:03:28.756Z,98514.41
2023-02-24T19:05:56.911Z,98512.11
2023-02-24T19:08:26.328Z,98507.42
2023-02-24T19:10:54.794Z,98506.14
2023-02-24T19:13:31.681Z,98502.81
2023-02-24T19:17:16.494Z,98495.22
2023-02-24T19:19:46.067Z,98483.79
2023-02-24T19:22:14.391Z,98482.69
2023-02-24T19:24:42.936Z,98484.44
2023-02-24T19:27:11.601Z,98477.23
2023-02-24T19:29:39.993Z,98474.60
2023-02-24T19:32:08.164Z,98470.09
2023-02-24T19:35:21.604Z,98464.26
2023-02-24T19:38:14.826Z,98461.21
2023-02-24T19:40:43.816Z,98457.94
2023-02-24T19:43:50.435Z,98456.34
2023-02-24T19:46:19.257Z,98460.48
2023-02-24T19:48:47.987Z,98451.73
2023-02-24T19:51:19.459Z,98452.34
2023-02-24T19:54:13.234Z,98453.05
2023-02-24T19:56:41.321Z,98457.67
2023-02-24T19:59:10.939Z,98456.19
2023-02-24T20:01:38.996Z,98452.35
2023-02-24T20:04:08.195Z,98458.30
2023-02-24T20:06:38.194Z,98458.14
2023-02-24T20:09:08.677Z,98455.27
2023-02-24T20:11:38.020Z,98449.88
2023-02-24T20:14:07.500Z,98446.19
2023-02-24T20:16:37.484Z,98447.22
2023-02-24T20:19:06.984Z,98445.43
2023-02-24T20:21:36.431Z,98440.91
2023-02-24T20:24:06.833Z,98436.20
2023-02-24T20:26:36.919Z,98437.23
2023-02-24T20:29:05.381Z,98434.57
2023-02-24T20:31:33.974Z,98432.08
2023-02-24T20:34:03.847Z,98433.45
2023-02-24T20:36:32.501Z,98435.31
2023-02-24T20:39:00.677Z,98432.96
2023-02-24T20:41:29.183Z,98432.80
2023-02-24T20:43:57.186Z,98428.91
2023-02-24T20:46:27.735Z,98421.64
2023-02-24T20:48:58.139Z,98417.24
2023-02-24T20:51:27.202Z,98416.04
2023-02-24T20:53:58.081Z,98415.18
2023-02-24T20:56:28.358Z,98408.57
2023-02-24T20:59:00.904Z,98401.76
2023-02-24T21:01:30.603Z,98397.31
2023-02-24T21:03:59.649Z,98390.83
2023-02-24T21:06:28.708Z,98388.13
2023-02-24T21:08:57.088Z,98392.17
2023-02-24T21:11:25.921Z,98391.15
2023-02-24T21:13:54.048Z,98390.12
2023-02-24T21:16:23.890Z,98388.39
2023-02-24T21:18:52.497Z,98381.77
2023-02-24T21:21:21.312Z,98378.87
2023-02-24T21:23:50.744Z,98370.89
2023-02-24T21:26:19.267Z,98368.00
2023-02-24T21:28:47.358Z,98366.45
2023-02-24T21:31:17.506Z,98363.52
2023-02-24T21:33:51.657Z,98360.59
2023-02-24T21:36:22.837Z,98354.27
2023-02-24T21:38:51.886Z,98345.45
2023-02-24T21:41:20.074Z,98344.42
2023-02-24T21:44:03.269Z,98341.36
2023-02-24T21:46:31.771Z,98336.80
2023-02-24T21:49:00.381Z,98331.17
2023-02-24T21:51:29.473Z,98324.86
2023-02-24T21:53:58.499Z,98328.16
2023-02-24T21:56:28.739Z,98320.16
2023-02-24T21:59:01.039Z,98311.67
2023-02-24T22:01:34.575Z,98305.71
2023-02-24T22:04:17.762Z,98299.40
2023-02-24T22:06:53.265Z,98293.11
2023-02-24T22:09:22.242Z,98288.53
2023-02-24T22:11:51.443Z,98290.08
2023-02-24T22:14:20.802Z,98299.08
2023-02-24T22:16:49.899Z,98295.70
2023-02-24T22:19:24.466Z,98293.66
2023-02-24T22:21:54.806Z,98287.45
2023-02-24T22:25:36.377Z,98274.27
2023-02-24T22:28:11.362Z,98269.71
2023-02-24T22:30:44.536Z,98269.56
2023-02-24T22:33:35.092Z,98268.34
2023-02-24T22:36:11.436Z,98263.11
2023-02-24T22:38:48.499Z,98264.10
2023-02-24T22:41:22.956Z,98259.15
2023-02-24T22:43:57.334Z,98254.73
2023-02-24T22:46:48.738Z,98253.82
2023-02-24T22:49:19.039Z,98247.00
2023-02-24T22:51:47.102Z,98238.58
2023-02-24T22:54:20.896Z,98240.30
2023-02-24T22:57:02.643Z,98242.31
2023-02-24T22:59:31.260Z,98241.64
2023-02-24T23:01:59.529Z,98236.13
2023-02-24T23:04:49.474Z,98231.39
2023-02-24T23:07:18.518Z,98225.27
2023-02-24T23:10:14.891Z,98222.71
2023-02-24T23:12:43.217Z,98218.45
2023-02-24T23:15:13.188Z,98214.54
2023-02-24T23:17:41.619Z,98212.98
2023-02-24T23:20:12.149Z,98211.09
2023-02-24T23:22:40.473Z,98211.92
2023-02-24T23:25:10.448Z,98212.73
2023-02-24T23:27:39.027Z,98216.93
2023-02-24T23:30:11.658Z,98210.14
2023-02-24T23:32:40.599Z,98204.16
2023-02-24T23:35:10.859Z,98195.70
2023-02-24T23:37:39.324Z,98193.30
2023-02-24T23:40:10.766Z,98187.36
2023-02-24T23:42:38.798Z,98179.52
2023-02-24T23:45:09.397Z,98174.25
2023-02-24T23:47:37.632Z,98159.32
2023-02-24T23:50:07.045Z,98152.71
2023-02-24T23:52:35.457Z,98149.11
2023-02-24T23:55:06.169Z,98143.34
2023-02-24T23:57:34.228Z,98138.92
